Pagina principale
METAR-TAF:

METAR-TAF

Aeroporti :

La Chaux-de-Fonds, Svizzera

latitudine: 47-05-03N, longitudine: 006-47-37E, altezza: 1027 m

Osservazione

Il bollettino è stato emesso 31 minuti fa, alle 11:50 UTC
Vento 5 kt da ovest/sud-ovest
Temperature 1°C
Umidità 100%
Pressione 1019 hPa
Visibilità: 9000 m
Nuvoloso
neve debole

METAR: LSGC 191150Z AUTO 25005KT 9000 -SN BKN/// 01/01 Q1019

Ora: 13:21 (12:21 UTC)

Previsione

Il bollettino è stato emesso 56 minuti fa, alle 11:25 UTC
Previsione valida dal 19 alle 12 UTC al 19 alle 21 UTC
Vento 8 kt da sud-ovest
Visibilità: 8000 m
Nuvoloso ad un'altezza di 800 ft
Temporaneamente
dal 19 alle 12 UTC al 19 alle 15 UTC
Visibilità: 3000 m
Cielo coperto ad un'altezza di 300 ft
neve debole

TAF: LSGC 191125Z 1912/1921 23008KT 8000 BKN008 TEMPO 1912/1915 3000 -SN OVC003

Osservazioni e previsioni meteorologiche di più di 4000 aeroporti (messaggi METAR e TAF).

Le stazioni disponibili sono rappresentate dai dischi gialli e rossi sulla carta.

Puntare il mouse per vedere il nome della stazione.

Clicca sopra per visualizzare le osservazioni e previsioni meteorologiche.

Per cambiare la mappa : fare clic sui pulsanti verdi con una croce nera per ingrandire, il pulsante verde con un trattino per diminuire, o sulla freccia verde per le mappe adiacenti.


METAR-TAF: